Terminal Aerodrome Forecast
Issued by NWS

Home | Current Version | Previous Version | Text Only | Print | Product List | Glossary On
Versions: 1 2 3 4 5 6 7 8 9 10 11 12 13 14 15 16 17 18 19 20 21 22
000
FTUS42 KGSP 011317 AAA
TAFAND
TAF AMD
KAND 011317Z 0113/0212 05005KT 6SM -RA BR SCT006 OVC040
      TEMPO 0113/0115 3SM -RA BR BKN006
     FM012000 00000KT P6SM OVC015
     FM020000 22003KT P6SM OVC008
     FM020400 21003KT P6SM OVC004=

USA.gov is the U.S. government's official web portal to all federal, state and local government web resources and services.